Caronport, Canada
Current Conditions -  °F | °C
As of 11:00 AM on Thursday 30 Oct 2014 (Local Time) from CYMJ Reporting Station
Overcast Overcast  
Wind Chill: 27°   Ceiling: 1000
Heat Index: 34°   Visibility: 15mi
Dew Point: 30°   Wind: 8mph
Humidity: 87%   Direction: 90°E
Pressure: 30.45"   Gusts: NA
Location:  50.46°N, 105.82°W
Report Text: CYMJ 301700Z 09007KT 15SM FEW008 OVC010 01/M01 A3045 RMK SF2SC6SLP339
Loading
Personal Weather Stations






























Interactive Weather Map
Tropical Storm Tracking
New forecast layout! Learn more

10-Day Weather Forecast

Advertisements
Track Severe Weather on mobile